sensor_id;sensor_type;location;lat;lon;timestamp;pressure;altitude;pressure_sealevel;temperature;humidity
11936;BME280;6027;48.576;9.180;2023-04-06T00:01:31;97078.53;;;1.45;73.57
11936;BME280;6027;48.576;9.180;2023-04-06T00:03:57;97080.41;;;1.43;72.66
11936;BME280;6027;48.576;9.180;2023-04-06T00:06:22;97078.41;;;1.46;72.21
11936;BME280;6027;48.576;9.180;2023-04-06T00:08:48;97077.34;;;1.49;71.72
11936;BME280;6027;48.576;9.180;2023-04-06T00:11:13;97072.00;;;1.50;70.87
11936;BME280;6027;48.576;9.180;2023-04-06T00:13:39;97070.91;;;1.64;69.26
11936;BME280;6027;48.576;9.180;2023-04-06T00:16:05;97071.38;;;1.69;68.38
11936;BME280;6027;48.576;9.180;2023-04-06T00:18:31;97065.31;;;1.68;67.46
11936;BME280;6027;48.576;9.180;2023-04-06T00:20:57;97067.81;;;1.70;66.86
11936;BME280;6027;48.576;9.180;2023-04-06T00:23:22;97066.38;;;1.66;67.41
11936;BME280;6027;48.576;9.180;2023-04-06T00:25:47;97058.19;;;1.70;66.96
11936;BME280;6027;48.576;9.180;2023-04-06T00:28:13;97064.97;;;1.73;67.21
11936;BME280;6027;48.576;9.180;2023-04-06T00:30:38;97060.28;;;1.77;66.21
11936;BME280;6027;48.576;9.180;2023-04-06T00:33:04;97061.88;;;1.57;67.99
11936;BME280;6027;48.576;9.180;2023-04-06T00:35:30;97054.09;;;1.46;69.64
11936;BME280;6027;48.576;9.180;2023-04-06T00:37:55;97057.66;;;1.45;70.91
11936;BME280;6027;48.576;9.180;2023-04-06T00:40:21;97052.59;;;1.32;72.57
11936;BME280;6027;48.576;9.180;2023-04-06T00:42:47;97056.50;;;1.26;72.96
11936;BME280;6027;48.576;9.180;2023-04-06T00:45:12;97046.97;;;1.36;71.33
11936;BME280;6027;48.576;9.180;2023-04-06T00:47:37;97056.47;;;1.49;70.36
11936;BME280;6027;48.576;9.180;2023-04-06T00:50:03;97053.25;;;1.45;69.92
11936;BME280;6027;48.576;9.180;2023-04-06T00:52:29;97049.81;;;1.45;68.81
11936;BME280;6027;48.576;9.180;2023-04-06T00:54:55;97048.53;;;1.50;68.57
11936;BME280;6027;48.576;9.180;2023-04-06T00:57:20;97044.59;;;1.45;68.66
11936;BME280;6027;48.576;9.180;2023-04-06T00:59:46;97046.16;;;1.47;68.67
11936;BME280;6027;48.576;9.180;2023-04-06T01:02:11;97040.69;;;1.50;67.97
11936;BME280;6027;48.576;9.180;2023-04-06T01:04:37;97035.69;;;1.58;67.23
11936;BME280;6027;48.576;9.180;2023-04-06T01:07:03;97040.69;;;1.50;67.06
11936;BME280;6027;48.576;9.180;2023-04-06T01:09:28;97039.03;;;1.38;67.25
11936;BME280;6027;48.576;9.180;2023-04-06T01:11:58;97026.03;;;1.16;68.71
11936;BME280;6027;48.576;9.180;2023-04-06T01:14:24;97039.91;;;1.05;71.05
11936;BME280;6027;48.576;9.180;2023-04-06T01:16:51;97043.34;;;0.72;74.41
11936;BME280;6027;48.576;9.180;2023-04-06T01:19:17;97028.53;;;0.61;75.64
11936;BME280;6027;48.576;9.180;2023-04-06T01:21:42;97018.72;;;0.76;75.40
11936;BME280;6027;48.576;9.180;2023-04-06T01:24:08;97039.56;;;0.87;74.41
11936;BME280;6027;48.576;9.180;2023-04-06T01:26:34;97030.91;;;0.98;72.36
11936;BME280;6027;48.576;9.180;2023-04-06T01:29:01;97029.38;;;1.07;71.77
11936;BME280;6027;48.576;9.180;2023-04-06T01:31:27;97032.56;;;0.99;71.49
11936;BME280;6027;48.576;9.180;2023-04-06T01:33:53;97025.56;;;0.99;71.74
11936;BME280;6027;48.576;9.180;2023-04-06T01:36:18;97029.72;;;1.02;70.73
11936;BME280;6027;48.576;9.180;2023-04-06T01:38:44;97022.38;;;1.07;70.42
11936;BME280;6027;48.576;9.180;2023-04-06T01:41:10;97019.53;;;1.10;70.79
11936;BME280;6027;48.576;9.180;2023-04-06T01:43:35;97030.19;;;1.07;71.69
11936;BME280;6027;48.576;9.180;2023-04-06T01:46:01;97024.88;;;1.09;70.49
11936;BME280;6027;48.576;9.180;2023-04-06T01:48:27;97017.16;;;1.07;69.81
11936;BME280;6027;48.576;9.180;2023-04-06T01:50:53;97026.66;;;1.08;69.47
11936;BME280;6027;48.576;9.180;2023-04-06T01:53:19;97013.81;;;1.16;69.32
11936;BME280;6027;48.576;9.180;2023-04-06T01:55:44;97011.22;;;1.05;69.41
11936;BME280;6027;48.576;9.180;2023-04-06T01:58:10;97012.78;;;1.08;69.65
11936;BME280;6027;48.576;9.180;2023-04-06T02:00:35;97012.56;;;0.88;70.73
11936;BME280;6027;48.576;9.180;2023-04-06T02:03:01;97020.00;;;0.59;71.97
11936;BME280;6027;48.576;9.180;2023-04-06T02:05:28;97016.09;;;0.65;72.95
11936;BME280;6027;48.576;9.180;2023-04-06T02:07:55;97011.22;;;0.38;75.72
11936;BME280;6027;48.576;9.180;2023-04-06T02:10:20;97013.56;;;0.30;77.79
11936;BME280;6027;48.576;9.180;2023-04-06T02:12:46;97014.88;;;0.36;77.56
11936;BME280;6027;48.576;9.180;2023-04-06T02:15:11;97011.34;;;0.37;76.50
11936;BME280;6027;48.576;9.180;2023-04-06T02:17:38;97008.75;;;0.48;75.52
11936;BME280;6027;48.576;9.180;2023-04-06T02:20:05;97009.00;;;0.56;74.00
11936;BME280;6027;48.576;9.180;2023-04-06T02:22:31;97009.47;;;0.61;74.40
11936;BME280;6027;48.576;9.180;2023-04-06T02:24:56;97012.28;;;0.47;74.91
11936;BME280;6027;48.576;9.180;2023-04-06T02:27:21;97013.94;;;0.48;75.64
11936;BME280;6027;48.576;9.180;2023-04-06T02:29:47;97008.47;;;0.28;77.01
11936;BME280;6027;48.576;9.180;2023-04-06T02:32:12;97003.53;;;0.48;75.68
11936;BME280;6027;48.576;9.180;2023-04-06T02:34:38;97004.84;;;0.53;74.17
11936;BME280;6027;48.576;9.180;2023-04-06T02:37:06;97001.66;;;0.50;74.94
11936;BME280;6027;48.576;9.180;2023-04-06T02:39:32;97008.41;;;0.52;74.79
11936;BME280;6027;48.576;9.180;2023-04-06T02:41:57;96997.75;;;0.55;75.05
11936;BME280;6027;48.576;9.180;2023-04-06T02:44:23;97003.41;;;0.60;73.88
11936;BME280;6027;48.576;9.180;2023-04-06T02:46:48;97003.06;;;0.54;74.60
11936;BME280;6027;48.576;9.180;2023-04-06T02:49:14;97006.59;;;0.42;75.73
11936;BME280;6027;48.576;9.180;2023-04-06T02:51:39;97003.59;;;0.13;77.54
11936;BME280;6027;48.576;9.180;2023-04-06T02:54:05;96999.66;;;-0.04;79.36
11936;BME280;6027;48.576;9.180;2023-04-06T02:56:30;96994.78;;;-0.09;79.62
11936;BME280;6027;48.576;9.180;2023-04-06T02:58:56;96999.34;;;0.12;79.39
11936;BME280;6027;48.576;9.180;2023-04-06T03:01:21;97003.81;;;0.10;80.08
11936;BME280;6027;48.576;9.180;2023-04-06T03:03:47;97000.28;;;0.11;80.26
11936;BME280;6027;48.576;9.180;2023-04-06T03:06:13;97003.47;;;0.14;80.00
11936;BME280;6027;48.576;9.180;2023-04-06T03:08:38;96997.66;;;0.11;80.32
11936;BME280;6027;48.576;9.180;2023-04-06T03:11:05;97002.88;;;0.22;79.52
11936;BME280;6027;48.576;9.180;2023-04-06T03:13:30;97008.38;;;0.30;78.69
11936;BME280;6027;48.576;9.180;2023-04-06T03:15:56;96994.25;;;0.10;78.68
11936;BME280;6027;48.576;9.180;2023-04-06T03:18:22;97000.06;;;0.14;78.81
11936;BME280;6027;48.576;9.180;2023-04-06T03:20:48;96999.97;;;-0.09;79.70
11936;BME280;6027;48.576;9.180;2023-04-06T03:23:13;97001.13;;;-0.24;82.58
11936;BME280;6027;48.576;9.180;2023-04-06T03:25:39;96997.63;;;-0.36;83.70
11936;BME280;6027;48.576;9.180;2023-04-06T03:28:05;96998.09;;;-0.42;84.59
11936;BME280;6027;48.576;9.180;2023-04-06T03:30:30;97006.22;;;-0.46;84.96
11936;BME280;6027;48.576;9.180;2023-04-06T03:32:56;97005.06;;;-0.66;86.16
11936;BME280;6027;48.576;9.180;2023-04-06T03:35:21;97002.19;;;-0.50;85.56
11936;BME280;6027;48.576;9.180;2023-04-06T03:37:46;97016.06;;;-0.62;87.18
11936;BME280;6027;48.576;9.180;2023-04-06T03:42:39;97014.88;;;-0.35;85.60
11936;BME280;6027;48.576;9.180;2023-04-06T03:45:05;97017.84;;;-0.39;85.76
11936;BME280;6027;48.576;9.180;2023-04-06T03:47:31;97021.53;;;-0.54;86.98
11936;BME280;6027;48.576;9.180;2023-04-06T03:49:56;97013.94;;;-0.57;87.43
11936;BME280;6027;48.576;9.180;2023-04-06T03:52:22;97011.59;;;-0.60;87.87
11936;BME280;6027;48.576;9.180;2023-04-06T03:54:48;97014.63;;;-0.66;88.41
11936;BME280;6027;48.576;9.180;2023-04-06T03:57:14;97019.03;;;-0.80;89.79
11936;BME280;6027;48.576;9.180;2023-04-06T03:59:40;97026.44;;;-0.86;90.82
11936;BME280;6027;48.576;9.180;2023-04-06T04:02:09;97022.78;;;-0.84;90.96
11936;BME280;6027;48.576;9.180;2023-04-06T04:04:34;97026.22;;;-0.96;92.06
11936;BME280;6027;48.576;9.180;2023-04-06T04:07:00;97024.16;;;-0.91;92.49
11936;BME280;6027;48.576;9.180;2023-04-06T04:09:25;97030.59;;;-0.84;91.40
11936;BME280;6027;48.576;9.180;2023-04-06T04:11:51;97030.63;;;-0.96;91.79
11936;BME280;6027;48.576;9.180;2023-04-06T04:14:16;97028.09;;;-0.85;91.77
11936;BME280;6027;48.576;9.180;2023-04-06T04:16:41;97026.84;;;-0.80;91.56
11936;BME280;6027;48.576;9.180;2023-04-06T04:19:07;97036.06;;;-0.76;91.28
11936;BME280;6027;48.576;9.180;2023-04-06T04:21:33;97032.03;;;-0.80;91.27
11936;BME280;6027;48.576;9.180;2023-04-06T04:23:58;97032.25;;;-0.83;91.08
11936;BME280;6027;48.576;9.180;2023-04-06T04:26:24;97034.84;;;-0.83;90.76
11936;BME280;6027;48.576;9.180;2023-04-06T04:28:49;97036.97;;;-0.64;89.67
11936;BME280;6027;48.576;9.180;2023-04-06T04:31:15;97032.97;;;-0.57;88.46
11936;BME280;6027;48.576;9.180;2023-04-06T04:33:43;97039.94;;;-0.57;88.81
11936;BME280;6027;48.576;9.180;2023-04-06T04:36:09;97028.56;;;-0.67;89.38
11936;BME280;6027;48.576;9.180;2023-04-06T04:38:35;97037.97;;;-0.78;90.33
11936;BME280;6027;48.576;9.180;2023-04-06T04:41:01;97035.47;;;-0.92;90.69
11936;BME280;6027;48.576;9.180;2023-04-06T04:43:26;97028.63;;;-0.93;90.71
11936;BME280;6027;48.576;9.180;2023-04-06T04:45:52;97038.06;;;-0.79;90.23
11936;BME280;6027;48.576;9.180;2023-04-06T04:48:17;97037.63;;;-0.73;90.55
11936;BME280;6027;48.576;9.180;2023-04-06T04:50:43;97046.34;;;-0.74;90.56
11936;BME280;6027;48.576;9.180;2023-04-06T04:53:08;97035.06;;;-0.86;91.48
11936;BME280;6027;48.576;9.180;2023-04-06T04:55:33;97038.19;;;-0.81;91.04
11936;BME280;6027;48.576;9.180;2023-04-06T04:57:59;97046.72;;;-0.91;92.03
11936;BME280;6027;48.576;9.180;2023-04-06T05:00:25;97044.78;;;-0.77;91.80
11936;BME280;6027;48.576;9.180;2023-04-06T05:02:50;97047.66;;;-0.92;92.51
11936;BME280;6027;48.576;9.180;2023-04-06T05:05:16;97043.00;;;-1.00;94.43
11936;BME280;6027;48.576;9.180;2023-04-06T05:07:41;97043.09;;;-1.01;94.12
11936;BME280;6027;48.576;9.180;2023-04-06T05:10:07;97051.63;;;-1.12;95.46
11936;BME280;6027;48.576;9.180;2023-04-06T05:12:32;97045.53;;;-1.36;97.04
11936;BME280;6027;48.576;9.180;2023-04-06T05:14:58;97052.91;;;-1.30;96.75
11936;BME280;6027;48.576;9.180;2023-04-06T05:17:23;97058.19;;;-1.45;98.33
11936;BME280;6027;48.576;9.180;2023-04-06T05:19:49;97055.59;;;-1.32;98.60
11936;BME280;6027;48.576;9.180;2023-04-06T05:22:14;97056.75;;;-1.36;98.52
11936;BME280;6027;48.576;9.180;2023-04-06T05:24:43;97062.66;;;-1.34;99.32
11936;BME280;6027;48.576;9.180;2023-04-06T05:27:08;97063.63;;;-1.35;100.00
11936;BME280;6027;48.576;9.180;2023-04-06T05:29:34;97066.31;;;-1.24;100.00
11936;BME280;6027;48.576;9.180;2023-04-06T05:32:00;97072.75;;;-1.17;99.69
11936;BME280;6027;48.576;9.180;2023-04-06T05:34:26;97074.72;;;-1.20;100.00
11936;BME280;6027;48.576;9.180;2023-04-06T05:36:51;97080.84;;;-1.21;100.00
11936;BME280;6027;48.576;9.180;2023-04-06T05:39:17;97072.53;;;-1.39;100.00
11936;BME280;6027;48.576;9.180;2023-04-06T05:41:42;97074.72;;;-1.20;100.00
11936;BME280;6027;48.576;9.180;2023-04-06T05:44:08;97079.72;;;-1.17;100.00
11936;BME280;6027;48.576;9.180;2023-04-06T05:46:34;97079.59;;;-1.16;100.00
11936;BME280;6027;48.576;9.180;2023-04-06T05:48:59;97084.16;;;-1.07;100.00
11936;BME280;6027;48.576;9.180;2023-04-06T05:51:25;97086.56;;;-1.03;100.00
11936;BME280;6027;48.576;9.180;2023-04-06T05:53:51;97083.75;;;-1.00;100.00
11936;BME280;6027;48.576;9.180;2023-04-06T05:56:17;97095.50;;;-1.20;100.00
11936;BME280;6027;48.576;9.180;2023-04-06T05:58:43;97088.19;;;-1.15;100.00
11936;BME280;6027;48.576;9.180;2023-04-06T06:01:10;97083.31;;;-1.07;100.00
11936;BME280;6027;48.576;9.180;2023-04-06T06:03:35;97084.47;;;-1.11;100.00
11936;BME280;6027;48.576;9.180;2023-04-06T06:06:02;97092.69;;;-1.17;100.00
11936;BME280;6027;48.576;9.180;2023-04-06T06:08:28;97094.03;;;-1.12;100.00
11936;BME280;6027;48.576;9.180;2023-04-06T06:10:54;97089.66;;;-0.98;100.00
11936;BME280;6027;48.576;9.180;2023-04-06T06:13:21;97074.06;;;-0.98;100.00
11936;BME280;6027;48.576;9.180;2023-04-06T06:15:47;97093.19;;;-0.87;100.00
11936;BME280;6027;48.576;9.180;2023-04-06T06:18:13;97101.38;;;-0.80;100.00
11936;BME280;6027;48.576;9.180;2023-04-06T06:20:38;97097.31;;;-0.72;100.00
11936;BME280;6027;48.576;9.180;2023-04-06T06:23:04;97091.00;;;-0.56;100.00
11936;BME280;6027;48.576;9.180;2023-04-06T06:25:29;97091.84;;;-0.56;100.00
11936;BME280;6027;48.576;9.180;2023-04-06T06:27:58;97095.59;;;-0.47;100.00
11936;BME280;6027;48.576;9.180;2023-04-06T06:30:23;97096.19;;;-0.44;100.00
11936;BME280;6027;48.576;9.180;2023-04-06T06:32:50;97098.75;;;-0.31;100.00
11936;BME280;6027;48.576;9.180;2023-04-06T06:35:15;97098.59;;;-0.41;100.00
11936;BME280;6027;48.576;9.180;2023-04-06T06:37:41;97098.66;;;-0.29;100.00
11936;BME280;6027;48.576;9.180;2023-04-06T06:40:08;97103.00;;;-0.30;100.00
11936;BME280;6027;48.576;9.180;2023-04-06T06:42:34;97101.78;;;-0.37;100.00
11936;BME280;6027;48.576;9.180;2023-04-06T06:45:00;97095.00;;;-0.27;100.00
11936;BME280;6027;48.576;9.180;2023-04-06T06:47:25;97091.66;;;-0.29;100.00
11936;BME280;6027;48.576;9.180;2023-04-06T06:49:51;97091.28;;;-0.12;100.00
11936;BME280;6027;48.576;9.180;2023-04-06T06:52:17;97101.75;;;-0.01;100.00
11936;BME280;6027;48.576;9.180;2023-04-06T06:54:42;97098.88;;;0.15;100.00
11936;BME280;6027;48.576;9.180;2023-04-06T06:57:08;97105.38;;;0.21;99.65
11936;BME280;6027;48.576;9.180;2023-04-06T06:59:34;97100.94;;;0.34;98.06
11936;BME280;6027;48.576;9.180;2023-04-06T07:02:00;97103.19;;;0.39;97.79
11936;BME280;6027;48.576;9.180;2023-04-06T07:04:25;97103.13;;;0.51;96.78
11936;BME280;6027;48.576;9.180;2023-04-06T07:06:51;97110.72;;;0.65;96.62
11936;BME280;6027;48.576;9.180;2023-04-06T07:09:18;97107.78;;;0.70;95.97
11936;BME280;6027;48.576;9.180;2023-04-06T07:11:44;97107.91;;;0.80;93.76
11936;BME280;6027;48.576;9.180;2023-04-06T07:14:09;97106.00;;;0.82;94.06
11936;BME280;6027;48.576;9.180;2023-04-06T07:16:37;97102.38;;;0.95;94.53
11936;BME280;6027;48.576;9.180;2023-04-06T07:19:02;97104.50;;;1.01;91.38
11936;BME280;6027;48.576;9.180;2023-04-06T07:21:28;97111.28;;;1.15;91.53
11936;BME280;6027;48.576;9.180;2023-04-06T07:26:21;97106.97;;;1.48;89.05
11936;BME280;6027;48.576;9.180;2023-04-06T07:28:46;97108.63;;;1.60;88.60
11936;BME280;6027;48.576;9.180;2023-04-06T07:31:12;97111.22;;;1.71;86.95
11936;BME280;6027;48.576;9.180;2023-04-06T07:33:38;97099.44;;;1.77;86.46
11936;BME280;6027;48.576;9.180;2023-04-06T07:36:03;97110.31;;;1.93;85.78
11936;BME280;6027;48.576;9.180;2023-04-06T07:38:29;97097.03;;;1.96;85.49
11936;BME280;6027;48.576;9.180;2023-04-06T07:40:55;97105.03;;;2.15;84.64
11936;BME280;6027;48.576;9.180;2023-04-06T07:43:20;97101.69;;;2.24;85.38
11936;BME280;6027;48.576;9.180;2023-04-06T07:45:46;97102.16;;;2.50;81.87
11936;BME280;6027;48.576;9.180;2023-04-06T07:48:11;97103.06;;;2.60;81.28
11936;BME280;6027;48.576;9.180;2023-04-06T07:50:37;97096.28;;;2.78;81.14
11936;BME280;6027;48.576;9.180;2023-04-06T07:53:02;97100.31;;;2.83;78.06
11936;BME280;6027;48.576;9.180;2023-04-06T07:55:28;97091.53;;;2.93;78.45
11936;BME280;6027;48.576;9.180;2023-04-06T07:57:53;97095.75;;;3.05;78.89
11936;BME280;6027;48.576;9.180;2023-04-06T08:00:22;97089.97;;;3.11;77.31
11936;BME280;6027;48.576;9.180;2023-04-06T08:02:47;97099.50;;;3.43;75.22
11936;BME280;6027;48.576;9.180;2023-04-06T08:05:13;97100.78;;;3.58;74.24
11936;BME280;6027;48.576;9.180;2023-04-06T08:07:38;97097.91;;;3.71;73.00
11936;BME280;6027;48.576;9.180;2023-04-06T08:10:08;97107.72;;;3.88;71.83
11936;BME280;6027;48.576;9.180;2023-04-06T08:12:34;97092.44;;;3.93;70.14
11936;BME280;6027;48.576;9.180;2023-04-06T08:15:00;97092.88;;;3.98;66.99
11936;BME280;6027;48.576;9.180;2023-04-06T08:17:25;97100.75;;;4.18;68.21
11936;BME280;6027;48.576;9.180;2023-04-06T08:19:52;97088.47;;;4.47;66.43
11936;BME280;6027;48.576;9.180;2023-04-06T08:22:18;97099.75;;;4.67;66.39
11936;BME280;6027;48.576;9.180;2023-04-06T08:24:43;97091.91;;;4.76;64.53
11936;BME280;6027;48.576;9.180;2023-04-06T08:27:09;97099.00;;;5.03;64.67
11936;BME280;6027;48.576;9.180;2023-04-06T08:29:34;97101.44;;;5.24;63.73
11936;BME280;6027;48.576;9.180;2023-04-06T08:32:00;97088.72;;;5.29;63.73
11936;BME280;6027;48.576;9.180;2023-04-06T08:34:28;97097.19;;;5.50;60.60
11936;BME280;6027;48.576;9.180;2023-04-06T08:36:53;97091.41;;;5.74;60.51
11936;BME280;6027;48.576;9.180;2023-04-06T08:39:19;97089.84;;;5.81;61.32
11936;BME280;6027;48.576;9.180;2023-04-06T08:41:51;97092.84;;;5.86;59.72
11936;BME280;6027;48.576;9.180;2023-04-06T08:44:18;97093.72;;;6.05;58.75
11936;BME280;6027;48.576;9.180;2023-04-06T08:46:44;97091.78;;;6.24;58.57
11936;BME280;6027;48.576;9.180;2023-04-06T08:49:09;97088.88;;;6.45;56.07
11936;BME280;6027;48.576;9.180;2023-04-06T08:51:36;97077.50;;;6.63;53.93
11936;BME280;6027;48.576;9.180;2023-04-06T08:54:03;97079.72;;;6.75;54.60
11936;BME280;6027;48.576;9.180;2023-04-06T08:56:28;97081.00;;;6.89;52.81
11936;BME280;6027;48.576;9.180;2023-04-06T08:58:55;97077.63;;;7.05;52.14
11936;BME280;6027;48.576;9.180;2023-04-06T09:01:23;97073.06;;;7.15;51.83
11936;BME280;6027;48.576;9.180;2023-04-06T09:03:51;97074.16;;;7.30;51.38
11936;BME280;6027;48.576;9.180;2023-04-06T09:06:21;97073.38;;;7.38;52.54
11936;BME280;6027;48.576;9.180;2023-04-06T09:08:46;97075.59;;;7.50;50.32
11936;BME280;6027;48.576;9.180;2023-04-06T09:11:12;97068.53;;;7.59;49.71
11936;BME280;6027;48.576;9.180;2023-04-06T09:13:46;97066.41;;;7.71;50.00
11936;BME280;6027;48.576;9.180;2023-04-06T09:16:12;97072.06;;;7.84;51.08
11936;BME280;6027;48.576;9.180;2023-04-06T09:18:38;97064.38;;;7.98;46.78
11936;BME280;6027;48.576;9.180;2023-04-06T09:21:05;97073.78;;;8.09;47.93
11936;BME280;6027;48.576;9.180;2023-04-06T09:23:31;97064.75;;;8.20;49.31
11936;BME280;6027;48.576;9.180;2023-04-06T09:31:16;97051.84;;;8.01;51.93
11936;BME280;6027;48.576;9.180;2023-04-06T09:33:44;97058.81;;;8.18;50.89
11936;BME280;6027;48.576;9.180;2023-04-06T09:36:11;97062.16;;;8.36;50.13
11936;BME280;6027;48.576;9.180;2023-04-06T09:38:55;97061.16;;;8.70;49.46
11936;BME280;6027;48.576;9.180;2023-04-06T09:41:32;97062.97;;;8.93;47.32
11936;BME280;6027;48.576;9.180;2023-04-06T09:44:11;97061.94;;;9.11;46.29
11936;BME280;6027;48.576;9.180;2023-04-06T09:46:46;97054.50;;;9.06;45.67
11936;BME280;6027;48.576;9.180;2023-04-06T09:49:13;97050.22;;;9.13;45.68
11936;BME280;6027;48.576;9.180;2023-04-06T09:51:46;97049.31;;;9.37;45.42
11936;BME280;6027;48.576;9.180;2023-04-06T09:54:19;97051.63;;;9.40;44.20
11936;BME280;6027;48.576;9.180;2023-04-06T09:56:47;97051.75;;;9.47;43.06
11936;BME280;6027;48.576;9.180;2023-04-06T09:59:18;97045.78;;;9.61;42.84
11936;BME280;6027;48.576;9.180;2023-04-06T10:01:48;97046.34;;;9.79;42.18
11936;BME280;6027;48.576;9.180;2023-04-06T10:07:02;97042.72;;;9.80;40.34
11936;BME280;6027;48.576;9.180;2023-04-06T10:09:28;97041.31;;;9.92;40.87
11936;BME280;6027;48.576;9.180;2023-04-06T10:12:05;97047.25;;;9.94;40.41
11936;BME280;6027;48.576;9.180;2023-04-06T10:14:34;97039.59;;;9.77;38.46
11936;BME280;6027;48.576;9.180;2023-04-06T10:17:03;97041.31;;;9.61;40.92
11936;BME280;6027;48.576;9.180;2023-04-06T10:21:59;97042.22;;;9.38;37.86
11936;BME280;6027;48.576;9.180;2023-04-06T10:24:28;97034.06;;;9.55;39.14
11936;BME280;6027;48.576;9.180;2023-04-06T10:27:03;97031.72;;;9.60;38.10
11936;BME280;6027;48.576;9.180;2023-04-06T10:29:46;97031.00;;;9.75;38.23
11936;BME280;6027;48.576;9.180;2023-04-06T10:32:14;97029.94;;;9.84;38.31
11936;BME280;6027;48.576;9.180;2023-04-06T10:34:39;97032.59;;;9.84;37.14
11936;BME280;6027;48.576;9.180;2023-04-06T10:37:15;97031.91;;;9.90;37.44
11936;BME280;6027;48.576;9.180;2023-04-06T10:39:51;97022.53;;;10.10;37.15
11936;BME280;6027;48.576;9.180;2023-04-06T10:42:24;97029.25;;;10.21;34.71
11936;BME280;6027;48.576;9.180;2023-04-06T10:44:50;97018.13;;;10.25;36.97
11936;BME280;6027;48.576;9.180;2023-04-06T10:47:17;97027.56;;;10.28;35.74
11936;BME280;6027;48.576;9.180;2023-04-06T10:49:45;97028.19;;;10.30;35.07
11936;BME280;6027;48.576;9.180;2023-04-06T10:52:10;97019.56;;;10.36;34.61
11936;BME280;6027;48.576;9.180;2023-04-06T10:54:41;97006.69;;;10.33;37.87
11936;BME280;6027;48.576;9.180;2023-04-06T10:57:07;97020.13;;;10.46;34.96
11936;BME280;6027;48.576;9.180;2023-04-06T10:59:33;97013.78;;;10.55;35.80
11936;BME280;6027;48.576;9.180;2023-04-06T11:01:58;97008.91;;;10.44;34.06
11936;BME280;6027;48.576;9.180;2023-04-06T11:06:51;97013.69;;;10.63;33.20
11936;BME280;6027;48.576;9.180;2023-04-06T11:09:25;97007.81;;;10.76;33.90
11936;BME280;6027;48.576;9.180;2023-04-06T11:11:51;97008.56;;;10.99;33.78
11936;BME280;6027;48.576;9.180;2023-04-06T11:14:17;96999.13;;;10.97;34.26
11936;BME280;6027;48.576;9.180;2023-04-06T11:16:46;96997.41;;;10.89;33.27
11936;BME280;6027;48.576;9.180;2023-04-06T11:19:13;96999.78;;;10.99;34.78
11936;BME280;6027;48.576;9.180;2023-04-06T11:21:46;97000.06;;;11.04;33.31
11936;BME280;6027;48.576;9.180;2023-04-06T11:24:20;96996.69;;;10.95;34.07
11936;BME280;6027;48.576;9.180;2023-04-06T11:29:16;96991.31;;;11.33;33.53
11936;BME280;6027;48.576;9.180;2023-04-06T11:31:45;96987.91;;;11.24;31.32
11936;BME280;6027;48.576;9.180;2023-04-06T11:34:18;96997.69;;;11.24;32.94
11936;BME280;6027;48.576;9.180;2023-04-06T11:36:46;96987.19;;;11.30;32.71
11936;BME280;6027;48.576;9.180;2023-04-06T11:39:13;96980.13;;;11.37;29.94
11936;BME280;6027;48.576;9.180;2023-04-06T11:41:39;96982.59;;;11.39;32.25
11936;BME280;6027;48.576;9.180;2023-04-06T11:44:05;96976.47;;;11.38;32.68
11936;BME280;6027;48.576;9.180;2023-04-06T11:46:31;96975.25;;;11.56;30.89
11936;BME280;6027;48.576;9.180;2023-04-06T11:49:00;96973.78;;;11.68;32.67
11936;BME280;6027;48.576;9.180;2023-04-06T11:51:26;96978.28;;;11.67;nan
11936;BME280;6027;48.576;9.180;2023-04-06T11:53:52;96973.88;;;11.60;31.47
11936;BME280;6027;48.576;9.180;2023-04-06T11:56:28;96966.22;;;11.35;31.62
11936;BME280;6027;48.576;9.180;2023-04-06T11:58:57;96970.44;;;11.45;30.91
11936;BME280;6027;48.576;9.180;2023-04-06T12:01:26;96958.59;;;11.62;30.88
11936;BME280;6027;48.576;9.180;2023-04-06T12:03:52;96959.53;;;11.69;33.23
11936;BME280;6027;48.576;9.180;2023-04-06T12:06:18;96955.03;;;11.84;34.45
11936;BME280;6027;48.576;9.180;2023-04-06T12:08:43;96951.66;;;11.97;31.11
11936;BME280;6027;48.576;9.180;2023-04-06T12:11:10;96967.09;;;11.87;33.82
11936;BME280;6027;48.576;9.180;2023-04-06T12:13:36;96957.78;;;11.76;32.03
11936;BME280;6027;48.576;9.180;2023-04-06T12:16:01;96958.06;;;11.66;34.75
11936;BME280;6027;48.576;9.180;2023-04-06T12:18:27;96935.28;;;11.57;31.56
11936;BME280;6027;48.576;9.180;2023-04-06T12:20:52;96953.94;;;11.79;31.05
11936;BME280;6027;48.576;9.180;2023-04-06T12:23:21;96949.16;;;11.89;32.42
11936;BME280;6027;48.576;9.180;2023-04-06T12:25:46;96939.84;;;11.99;30.58
11936;BME280;6027;48.576;9.180;2023-04-06T12:28:12;96941.63;;;12.14;29.62
11936;BME280;6027;48.576;9.180;2023-04-06T12:30:38;96935.50;;;12.13;31.20
11936;BME280;6027;48.576;9.180;2023-04-06T12:33:03;96934.50;;;11.93;29.68
11936;BME280;6027;48.576;9.180;2023-04-06T12:35:33;96944.59;;;12.04;28.71
11936;BME280;6027;48.576;9.180;2023-04-06T12:37:58;96926.16;;;11.96;28.31
11936;BME280;6027;48.576;9.180;2023-04-06T12:40:24;96925.31;;;11.95;27.47
11936;BME280;6027;48.576;9.180;2023-04-06T12:42:50;96933.72;;;12.20;28.83
11936;BME280;6027;48.576;9.180;2023-04-06T12:45:15;96924.00;;;12.27;31.18
11936;BME280;6027;48.576;9.180;2023-04-06T12:47:41;96922.25;;;12.41;27.80
11936;BME280;6027;48.576;9.180;2023-04-06T12:50:07;96923.84;;;12.35;27.95
11936;BME280;6027;48.576;9.180;2023-04-06T12:52:32;96923.03;;;12.35;32.86
11936;BME280;6027;48.576;9.180;2023-04-06T12:55:03;96923.91;;;12.42;30.07
11936;BME280;6027;48.576;9.180;2023-04-06T12:57:30;96920.88;;;12.45;28.49
11936;BME280;6027;48.576;9.180;2023-04-06T12:59:57;96926.88;;;12.32;29.46
11936;BME280;6027;48.576;9.180;2023-04-06T13:02:22;96927.16;;;12.16;29.33
11936;BME280;6027;48.576;9.180;2023-04-06T13:04:49;96926.06;;;12.32;31.83
11936;BME280;6027;48.576;9.180;2023-04-06T13:07:15;96907.16;;;12.41;29.54
11936;BME280;6027;48.576;9.180;2023-04-06T13:09:40;96908.66;;;12.51;28.81
11936;BME280;6027;48.576;9.180;2023-04-06T13:12:06;96920.38;;;12.63;29.73
11936;BME280;6027;48.576;9.180;2023-04-06T13:14:31;96914.66;;;12.94;31.71
11936;BME280;6027;48.576;9.180;2023-04-06T13:16:57;96915.75;;;13.06;30.61
11936;BME280;6027;48.576;9.180;2023-04-06T13:19:22;96903.25;;;13.00;26.99
11936;BME280;6027;48.576;9.180;2023-04-06T13:21:48;96891.94;;;12.85;30.04
11936;BME280;6027;48.576;9.180;2023-04-06T13:24:14;96909.00;;;12.69;28.71
11936;BME280;6027;48.576;9.180;2023-04-06T13:26:39;96910.41;;;12.71;28.02
11936;BME280;6027;48.576;9.180;2023-04-06T13:29:05;96898.38;;;12.69;27.85
11936;BME280;6027;48.576;9.180;2023-04-06T13:31:30;96904.34;;;12.77;27.86